createdAt,value
2023-02-02T00:01:20.818Z,99440.11
2023-02-02T00:03:50.969Z,99441.48
2023-02-02T00:06:23.252Z,99438.53
2023-02-02T00:08:51.237Z,99431.73
2023-02-02T00:11:19.512Z,99436.47
2023-02-02T00:13:47.235Z,99438.55
2023-02-02T00:16:31.071Z,99438.51
2023-02-02T00:19:01.215Z,99433.20
2023-02-02T00:21:28.952Z,99442.91
2023-02-02T00:23:56.668Z,99459.42
2023-02-02T00:26:24.758Z,99452.34
2023-02-02T00:28:52.717Z,99448.41
2023-02-02T00:31:20.560Z,99450.46
2023-02-02T00:33:49.973Z,99446.90
2023-02-02T00:36:19.290Z,99456.13
2023-02-02T00:38:48.272Z,99451.98
2023-02-02T00:41:16.424Z,99452.24
2023-02-02T00:43:44.501Z,99450.38
2023-02-02T00:46:18.762Z,99454.33
2023-02-02T00:48:47.072Z,99454.84
2023-02-02T00:51:14.745Z,99456.73
2023-02-02T00:53:42.414Z,99457.16
2023-02-02T00:56:10.205Z,99451.94
2023-02-02T00:58:37.936Z,99447.45
2023-02-02T01:01:05.709Z,99450.77
2023-02-02T01:03:33.542Z,99454.90
2023-02-02T01:06:01.263Z,99456.70
2023-02-02T01:08:29.261Z,99460.35
2023-02-02T01:10:59.725Z,99455.13
2023-02-02T01:13:27.466Z,99457.45
2023-02-02T01:15:57.334Z,99455.39
2023-02-02T01:18:27.806Z,99459.63
2023-02-02T01:21:02.434Z,99457.53
2023-02-02T01:23:30.808Z,99455.48
2023-02-02T01:26:00.567Z,99445.73
2023-02-02T01:28:28.868Z,99447.77
2023-02-02T01:30:57.515Z,99448.80
2023-02-02T01:33:25.534Z,99441.03
2023-02-02T01:35:55.439Z,99447.32
2023-02-02T01:38:24.795Z,99447.10
2023-02-02T01:40:55.427Z,99442.30
2023-02-02T01:43:52.694Z,99443.07
2023-02-02T01:46:34.839Z,99435.17
2023-02-02T01:49:13.272Z,99432.59
2023-02-02T01:51:46.504Z,99425.59
2023-02-02T01:54:19.015Z,99428.67
2023-02-02T01:56:59.371Z,99432.55
2023-02-02T01:59:28.504Z,99429.23
2023-02-02T02:01:56.439Z,99424.63
2023-02-02T02:04:25.266Z,99420.84
2023-02-02T02:06:53.725Z,99410.70
2023-02-02T02:09:21.721Z,99415.73
2023-02-02T02:11:49.459Z,99415.23
2023-02-02T02:14:36.015Z,99416.79
2023-02-02T02:17:37.930Z,99422.73
2023-02-02T02:20:53.264Z,99424.82
2023-02-02T02:24:02.819Z,99417.89
2023-02-02T02:26:39.776Z,99420.30
2023-02-02T02:29:36.009Z,99423.00
2023-02-02T02:32:23.315Z,99419.32
2023-02-02T02:35:21.866Z,99418.77
2023-02-02T02:38:12.558Z,99418.32
2023-02-02T02:40:46.653Z,99410.78
2023-02-02T02:43:33.414Z,99410.50
2023-02-02T02:46:02.266Z,99406.75
2023-02-02T02:48:30.006Z,99401.27
2023-02-02T02:51:38.525Z,99410.27
2023-02-02T02:54:06.947Z,99400.17
2023-02-02T02:56:46.979Z,99396.63
2023-02-02T02:59:36.188Z,99398.46
2023-02-02T03:02:29.104Z,99391.38
2023-02-02T03:05:28.150Z,99393.72
2023-02-02T03:08:24.821Z,99382.06
2023-02-02T03:10:52.844Z,99374.70
2023-02-02T03:13:20.522Z,99365.73
2023-02-02T03:15:48.263Z,99363.38
2023-02-02T03:18:17.812Z,99353.08
2023-02-02T03:20:46.476Z,99361.55
2023-02-02T03:23:14.481Z,99353.81
2023-02-02T03:25:42.257Z,99343.95
2023-02-02T03:28:10.059Z,99344.66
2023-02-02T03:35:35.191Z,99348.12
2023-02-02T03:38:03.810Z,99336.20
2023-02-02T03:40:31.461Z,99348.77
2023-02-02T03:42:59.115Z,99332.79
2023-02-02T03:45:28.483Z,99345.16
2023-02-02T03:47:56.191Z,99339.89
2023-02-02T03:50:25.877Z,99327.16
2023-02-02T03:52:54.025Z,99328.53
2023-02-02T03:55:22.083Z,99329.27
2023-02-02T03:57:50.019Z,99322.82
2023-02-02T04:00:18.248Z,99331.08
2023-02-02T04:02:45.969Z,99327.31
2023-02-02T04:05:13.694Z,99323.92
2023-02-02T04:07:41.464Z,99321.61
2023-02-02T04:10:10.063Z,99328.86
2023-02-02T04:12:37.785Z,99315.63
2023-02-02T04:15:06.422Z,99313.38
2023-02-02T04:17:35.332Z,99319.36
2023-02-02T04:20:04.686Z,99308.49
2023-02-02T04:22:33.475Z,99313.11
2023-02-02T04:25:01.270Z,99315.98
2023-02-02T04:27:32.627Z,99318.71
2023-02-02T04:30:00.298Z,99320.16
2023-02-02T04:32:29.252Z,99314.46
2023-02-02T04:34:56.945Z,99315.55
2023-02-02T04:37:24.622Z,99315.30
2023-02-02T04:39:53.825Z,99310.52
2023-02-02T04:42:21.607Z,99318.33
2023-02-02T04:44:49.661Z,99308.50
2023-02-02T04:47:17.572Z,99314.55
2023-02-02T04:49:45.249Z,99312.79
2023-02-02T04:52:13.068Z,99311.85
2023-02-02T04:54:40.748Z,99305.80
2023-02-02T04:57:08.686Z,99314.54
2023-02-02T04:59:36.442Z,99317.73
2023-02-02T05:02:04.547Z,99319.41
2023-02-02T05:04:32.409Z,99321.29
2023-02-02T05:07:00.323Z,99318.05
2023-02-02T05:09:28.177Z,99314.88
2023-02-02T05:11:55.889Z,99323.38
2023-02-02T05:14:23.612Z,99324.73
2023-02-02T05:16:51.404Z,99330.80
2023-02-02T05:19:19.273Z,99327.43
2023-02-02T05:21:51.014Z,99338.70
2023-02-02T05:24:19.332Z,99345.56
2023-02-02T05:26:47.316Z,99331.39
2023-02-02T05:29:15.143Z,99320.02
2023-02-02T05:31:42.844Z,99328.27
2023-02-02T05:34:11.612Z,99332.61
2023-02-02T05:36:39.355Z,99332.72
2023-02-02T05:39:07.179Z,99337.98
2023-02-02T05:41:34.906Z,99335.96
2023-02-02T05:44:03.332Z,99330.64
2023-02-02T05:46:31.132Z,99336.79
2023-02-02T05:48:59.356Z,99331.52
2023-02-02T05:51:32.444Z,99340.33
2023-02-02T05:54:01.117Z,99341.25
2023-02-02T05:56:28.887Z,99349.78
2023-02-02T05:58:56.611Z,99346.69
2023-02-02T06:01:24.489Z,99356.36
2023-02-02T06:03:52.246Z,99367.91
2023-02-02T06:06:20.237Z,99371.59
2023-02-02T06:08:48.063Z,99379.81
2023-02-02T06:11:17.747Z,99395.34
2023-02-02T06:13:46.102Z,99396.17
2023-02-02T06:16:14.156Z,99394.60
2023-02-02T06:18:41.939Z,99410.99
2023-02-02T06:21:10.221Z,99399.20
2023-02-02T06:23:38.301Z,99407.71
2023-02-02T06:26:08.274Z,99411.61
2023-02-02T06:28:36.134Z,99408.95
2023-02-02T06:31:05.958Z,99409.08
2023-02-02T06:33:33.817Z,99423.81
2023-02-02T06:36:06.311Z,99418.63
2023-02-02T06:38:34.096Z,99424.52
2023-02-02T06:41:02.760Z,99427.42
2023-02-02T06:43:31.045Z,99439.30
2023-02-02T06:45:58.846Z,99436.98
2023-02-02T06:48:27.298Z,99449.08
2023-02-02T06:50:59.256Z,99448.69
2023-02-02T06:53:27.331Z,99458.02
2023-02-02T06:55:56.187Z,99463.35
2023-02-02T06:58:23.990Z,99475.13
2023-02-02T07:00:52.091Z,99463.24
2023-02-02T07:03:21.467Z,99472.77
2023-02-02T07:05:49.657Z,99482.86
2023-02-02T07:08:17.600Z,99489.41
2023-02-02T07:11:14.513Z,99495.77
2023-02-02T07:13:33.035Z,99499.30
2023-02-02T07:16:00.853Z,99499.13
2023-02-02T07:18:28.618Z,99500.48
2023-02-02T07:21:00.445Z,99507.30
2023-02-02T07:23:29.107Z,99516.44
2023-02-02T07:26:01.773Z,99516.98
2023-02-02T07:28:29.555Z,99526.38
2023-02-02T07:30:59.179Z,99539.34
2023-02-02T07:33:27.266Z,99544.23
2023-02-02T07:35:55.069Z,99551.79
2023-02-02T07:38:22.756Z,99554.31
2023-02-02T07:40:50.447Z,99555.33
2023-02-02T07:43:19.404Z,99570.33
2023-02-02T07:45:47.058Z,99571.34
2023-02-02T07:48:14.776Z,99581.35
2023-02-02T07:50:42.481Z,99583.73
2023-02-02T07:53:10.241Z,99589.14
2023-02-02T07:55:38.009Z,99599.70
2023-02-02T07:58:07.754Z,99597.09
2023-02-02T08:00:35.446Z,99607.38
2023-02-02T08:03:03.303Z,99608.27
2023-02-02T08:05:32.095Z,99607.18
2023-02-02T08:07:59.741Z,99621.61
2023-02-02T08:10:28.032Z,99627.58
2023-02-02T08:12:55.683Z,99632.86
2023-02-02T08:15:23.484Z,99635.13
2023-02-02T08:17:52.045Z,99648.08
2023-02-02T08:20:19.755Z,99642.91
2023-02-02T08:22:47.486Z,99652.08
2023-02-02T08:25:15.310Z,99654.70
2023-02-02T08:27:42.960Z,99661.73
2023-02-02T08:30:11.582Z,99662.26
2023-02-02T08:32:40.479Z,99662.27
2023-02-02T08:35:08.369Z,99662.80
2023-02-02T08:37:36.110Z,99665.66
2023-02-02T08:40:04.176Z,99670.01
2023-02-02T08:42:31.849Z,99673.09
2023-02-02T08:46:00.025Z,99673.40
2023-02-02T08:47:47.305Z,99685.55
2023-02-02T08:50:16.301Z,99680.65
2023-02-02T08:52:44.535Z,99683.33
2023-02-02T08:55:12.190Z,99693.48
2023-02-02T08:57:39.961Z,99695.46
2023-02-02T14:02:41.149Z,100059.35
2023-02-02T14:05:22.431Z,100059.34
2023-02-02T14:07:55.882Z,100060.00
2023-02-02T14:10:27.056Z,100066.26
2023-02-02T14:12:55.869Z,100067.84
2023-02-02T14:15:43.930Z,100082.83
2023-02-02T14:18:11.698Z,100086.02
2023-02-02T14:20:48.154Z,100087.21
2023-02-02T14:23:53.604Z,100094.64
2023-02-02T14:26:43.594Z,100097.45
2023-02-02T14:29:31.319Z,100101.67
2023-02-02T14:32:24.217Z,100107.53
2023-02-02T14:34:56.332Z,100110.27
2023-02-02T14:37:23.995Z,100116.08
2023-02-02T14:40:06.993Z,100116.10
2023-02-02T14:43:12.951Z,100117.70
2023-02-02T14:45:42.460Z,100125.77
2023-02-02T14:48:16.148Z,100124.98
2023-02-02T14:50:56.574Z,100127.34
2023-02-02T14:53:36.529Z,100125.34
2023-02-02T14:56:04.343Z,100132.58
2023-02-02T14:58:35.123Z,100137.77
2023-02-02T15:01:13.476Z,100147.62
2023-02-02T15:03:47.254Z,100146.71
2023-02-02T15:06:33.912Z,100165.81
2023-02-02T15:09:19.991Z,100172.45
2023-02-02T15:12:02.975Z,100186.10
2023-02-02T15:14:36.215Z,100195.09
2023-02-02T15:17:22.554Z,100210.20
2023-02-02T15:19:56.238Z,100210.22
2023-02-02T15:22:37.724Z,100222.19
2023-02-02T15:25:14.105Z,100231.61
2023-02-02T15:27:56.186Z,100236.65
2023-02-02T15:30:27.509Z,100238.12
2023-02-02T15:32:55.966Z,100251.52
2023-02-02T15:35:28.493Z,100254.46
2023-02-02T15:38:01.623Z,100258.91
2023-02-02T15:40:30.593Z,100266.21
2023-02-02T15:43:06.294Z,100272.58
2023-02-02T15:45:43.690Z,100283.17
2023-02-02T15:48:18.746Z,100290.84
2023-02-02T15:50:48.217Z,100297.63
2023-02-02T15:53:22.273Z,100302.54
2023-02-02T15:55:50.268Z,100308.01
2023-02-02T15:58:33.082Z,100324.22
2023-02-02T16:01:06.812Z,100337.14
2023-02-02T16:03:46.945Z,100348.30
2023-02-02T16:06:14.712Z,100359.75
2023-02-02T16:08:42.557Z,100366.64
2023-02-02T16:11:18.686Z,100375.61
2023-02-02T16:14:07.375Z,100384.88
2023-02-02T16:16:37.735Z,100397.41
2023-02-02T16:19:08.925Z,100402.33
2023-02-02T16:21:41.221Z,100407.48
2023-02-02T16:24:12.050Z,100416.15
2023-02-02T16:26:39.887Z,100418.92
2023-02-02T16:29:17.123Z,100423.73
2023-02-02T16:31:46.958Z,100428.09
2023-02-02T16:34:44.957Z,100435.73
2023-02-02T16:37:14.149Z,100444.14
2023-02-02T16:39:42.152Z,100450.08
2023-02-02T16:42:35.076Z,100457.79
2023-02-02T16:45:02.819Z,100465.36
2023-02-02T16:47:33.107Z,100470.28
2023-02-02T16:50:09.782Z,100472.45
2023-02-02T16:52:57.897Z,100474.12
2023-02-02T16:55:36.424Z,100486.77
2023-02-02T16:58:21.302Z,100496.88
2023-02-02T17:01:13.670Z,100501.59
2023-02-02T17:03:50.114Z,100510.21
2023-02-02T17:06:19.142Z,100514.58
2023-02-02T17:08:47.792Z,100519.38
2023-02-02T17:11:26.577Z,100525.22
2023-02-02T17:13:54.829Z,100532.79
2023-02-02T17:16:24.236Z,100539.25
2023-02-02T17:18:52.047Z,100546.45
2023-02-02T17:21:21.950Z,100554.34
2023-02-02T17:23:51.759Z,100563.66
2023-02-02T17:26:19.839Z,100566.06
2023-02-02T17:28:47.788Z,100568.17
2023-02-02T17:31:16.540Z,100572.31
2023-02-02T17:33:47.156Z,100577.03
2023-02-02T17:36:15.105Z,100582.82
2023-02-02T17:38:43.163Z,100589.45
2023-02-02T17:41:12.533Z,100592.58
2023-02-02T17:43:42.694Z,100608.28
2023-02-02T17:46:13.277Z,100609.39
2023-02-02T17:48:41.095Z,100613.34
2023-02-02T17:51:17.977Z,100623.50
2023-02-02T17:53:46.394Z,100625.59
2023-02-02T17:56:14.149Z,100634.83
2023-02-02T17:58:42.173Z,100638.16
2023-02-02T18:01:11.940Z,100643.08
2023-02-02T18:03:41.065Z,100649.41
2023-02-02T18:06:10.097Z,100656.95
2023-02-02T18:08:37.876Z,100658.98
2023-02-02T18:11:05.874Z,100667.55
2023-02-02T18:13:36.290Z,100674.58
2023-02-02T18:16:06.030Z,100680.78
2023-02-02T18:18:33.963Z,100680.73
2023-02-02T18:21:02.471Z,100682.70
2023-02-02T18:23:30.229Z,100687.60
2023-02-02T18:26:09.618Z,100689.17
2023-02-02T18:28:38.520Z,100688.77
2023-02-02T18:31:14.021Z,100694.11
2023-02-02T18:33:42.550Z,100699.77
2023-02-02T18:36:16.069Z,100704.94
2023-02-02T18:38:47.175Z,100714.29
2023-02-02T18:41:16.036Z,100728.41
2023-02-02T18:43:45.509Z,100731.63
2023-02-02T18:46:15.122Z,100737.42
2023-02-02T18:48:43.200Z,100746.70
2023-02-02T18:51:16.142Z,100751.52
2023-02-02T18:53:45.178Z,100754.24
2023-02-02T18:56:14.763Z,100759.90
2023-02-02T18:58:42.522Z,100763.90
2023-02-02T19:01:16.236Z,100772.57
2023-02-02T19:03:48.409Z,100771.46
2023-02-02T19:06:35.679Z,100774.09
2023-02-02T19:09:04.312Z,100768.77
2023-02-02T19:11:38.886Z,100775.39
2023-02-02T19:14:13.067Z,100782.19
2023-02-02T19:16:41.147Z,100785.07
2023-02-02T19:19:20.397Z,100783.84
2023-02-02T19:21:48.262Z,100788.33
2023-02-02T19:24:15.957Z,100792.14
2023-02-02T19:26:48.672Z,100796.91
2023-02-02T19:29:23.347Z,100795.80
2023-02-02T19:32:02.935Z,100801.75
2023-02-02T19:34:33.031Z,100805.23
2023-02-02T19:37:22.813Z,100806.30
2023-02-02T19:40:13.500Z,100812.85
2023-02-02T19:42:50.199Z,100814.71
2023-02-02T19:45:30.086Z,100818.90
2023-02-02T19:47:59.784Z,100824.95
2023-02-02T19:50:32.743Z,100826.08
2023-02-02T19:53:02.321Z,100830.40
2023-02-02T19:55:35.286Z,100829.27
2023-02-02T19:58:21.465Z,100833.23
2023-02-02T20:00:50.647Z,100841.63
2023-02-02T20:03:36.300Z,100841.03
2023-02-02T20:06:04.663Z,100845.39
2023-02-02T20:08:39.903Z,100850.73
2023-02-02T20:11:23.633Z,100851.93
2023-02-02T20:13:51.952Z,100850.80
2023-02-02T20:16:22.013Z,100848.36
2023-02-02T20:18:54.559Z,100851.25
2023-02-02T20:21:36.927Z,100851.28
2023-02-02T20:24:14.940Z,100860.02
2023-02-02T20:26:42.914Z,100864.41
2023-02-02T20:29:16.547Z,100865.77
2023-02-02T20:31:45.705Z,100866.20
2023-02-02T20:34:24.263Z,100870.33
2023-02-02T20:36:55.041Z,100875.69
2023-02-02T20:39:28.088Z,100878.39
2023-02-02T20:41:57.240Z,100887.21
2023-02-02T20:44:26.892Z,100888.77
2023-02-02T20:46:55.987Z,100896.23
2023-02-02T20:49:25.654Z,100899.77
2023-02-02T20:51:58.082Z,100901.45
2023-02-02T20:54:26.376Z,100905.95
2023-02-02T20:56:54.471Z,100909.11
2023-02-02T20:59:22.379Z,100918.01
2023-02-02T21:01:50.535Z,100924.67
2023-02-02T21:04:19.402Z,100925.40
2023-02-02T21:06:48.796Z,100916.61
2023-02-02T21:09:16.922Z,100919.02
2023-02-02T21:11:44.617Z,100922.05
2023-02-02T21:14:12.406Z,100928.96
2023-02-02T21:16:40.127Z,100928.76
2023-02-02T21:19:07.944Z,100928.13
2023-02-02T21:21:36.040Z,100929.52
2023-02-02T21:24:04.312Z,100930.23
2023-02-02T21:26:31.992Z,100930.55
2023-02-02T21:28:59.702Z,100924.81
2023-02-02T21:31:27.562Z,100924.65
2023-02-02T21:33:55.512Z,100922.16
2023-02-02T21:36:29.764Z,100922.06
2023-02-02T21:39:12.304Z,100917.11
2023-02-02T21:41:40.023Z,100915.42
2023-02-02T21:44:22.344Z,100917.52
2023-02-02T21:46:51.631Z,100915.92
2023-02-02T21:49:24.817Z,100914.10
2023-02-02T21:51:56.072Z,100912.34
2023-02-02T21:54:24.870Z,100911.12
2023-02-02T21:56:53.116Z,100909.52
2023-02-02T21:59:23.241Z,100905.64
2023-02-02T22:01:52.440Z,100904.30
2023-02-02T22:04:31.345Z,100903.66
2023-02-02T22:07:00.555Z,100910.39
2023-02-02T22:09:37.516Z,100908.41
2023-02-02T22:12:22.561Z,100917.38
2023-02-02T22:14:52.543Z,100915.40
2023-02-02T22:17:27.764Z,100920.23
2023-02-02T22:20:00.906Z,100922.42
2023-02-02T22:22:35.940Z,100923.20
2023-02-02T22:25:17.778Z,100921.68
2023-02-02T22:27:52.576Z,100916.39
2023-02-02T22:30:26.090Z,100913.80
2023-02-02T22:32:54.893Z,100916.04
2023-02-02T22:35:22.728Z,100917.48
2023-02-02T22:37:51.417Z,100922.02
2023-02-02T22:40:22.441Z,100922.66
2023-02-02T22:42:54.803Z,100927.73
2023-02-02T22:45:22.500Z,100929.73
2023-02-02T22:47:50.581Z,100932.77
2023-02-02T22:50:20.641Z,100936.60
2023-02-02T22:52:48.498Z,100935.45
2023-02-02T22:55:17.314Z,100934.48
2023-02-02T22:57:45.237Z,100934.73
2023-02-02T23:00:18.312Z,100935.85
2023-02-02T23:02:46.268Z,100928.71
2023-02-02T23:05:15.428Z,100927.45
2023-02-02T23:07:46.598Z,100933.65
2023-02-02T23:10:17.101Z,100935.58
2023-02-02T23:12:45.503Z,100936.63
2023-02-02T23:15:13.816Z,100937.50
2023-02-02T23:17:41.642Z,100940.73
2023-02-02T23:20:12.463Z,100944.85
2023-02-02T23:22:40.156Z,100946.08
2023-02-02T23:25:08.562Z,100942.75
2023-02-02T23:27:36.507Z,100941.65
2023-02-02T23:30:05.870Z,100942.73
2023-02-02T23:32:34.305Z,100942.04
2023-02-02T23:35:02.137Z,100942.63
2023-02-02T23:37:29.808Z,100944.11
2023-02-02T23:39:57.526Z,100945.38
2023-02-02T23:42:25.800Z,100940.98
2023-02-02T23:44:53.511Z,100943.79
2023-02-02T23:47:21.295Z,100936.98
2023-02-02T23:49:48.999Z,100935.95
2023-02-02T23:52:17.113Z,100937.15
2023-02-02T23:54:44.841Z,100940.17
2023-02-02T23:57:12.532Z,100940.20
2023-02-02T23:59:40.343Z,100945.47
